Time;durP1;ratioP1;P1;durP2;ratioP2;P2;SDS_P1;SDS_P2;PMS_P1;PMS_P2;Temp;Humidity;BMP_temperature;BMP_pressure;BME280_temperature;BME280_humidity;BME280_pressure;Samples;Min_cycle;Max_cycle;Signal;HPM_P1;HPM_P2
2024/01/05 00:00:55;;;;;;;;;;;;;;;7.03;78.74;99511.63;7349421;19;20414;-65
2024/01/05 00:03:20;;;;;;;;;;;;;;;7.03;79.16;99511.63;7356099;19;19932;-65
2024/01/05 00:05:46;;;;;;;;;;;;;;;7.03;78.84;99516.81;7357428;19;19927;-65
2024/01/05 00:08:11;;;;;;;;;;;;;;;7.03;78.91;99527.19;7363727;19;19925;-65
2024/01/05 00:10:36;;;;;;;;;;;;;;;7.03;79.18;99527.19;7359014;19;19923;-65
2024/01/05 00:13:01;;;;;;;;;;;;;;;7.05;79.00;99528.91;7367386;19;19915;-65
2024/01/05 00:15:27;;;;;;;;;;;;;;;7.03;78.98;99534.13;7367729;19;19921;-64
2024/01/05 00:17:52;;;;;;;;;;;;;;;7.03;79.36;99529.78;7364292;19;19922;-64
2024/01/05 00:20:17;;;;;;;;;;;;;;;7.03;79.28;99532.38;7365016;19;19934;-64
2024/01/05 00:22:42;;;;;;;;;;;;;;;7.02;79.38;99541.06;7370578;19;19939;-65
2024/01/05 00:25:08;;;;;;;;;;;;;;;7.01;79.03;99534.19;7361359;19;20711;-65
2024/01/05 00:27:33;;;;;;;;;;;;;;;7.00;79.05;99532.50;7367344;19;20005;-65
2024/01/05 00:29:58;;;;;;;;;;;;;;;7.01;79.32;99534.19;7358244;19;19926;-65
2024/01/05 00:32:24;;;;;;;;;;;;;;;7.02;79.35;99535.88;7366639;19;19919;-65
2024/01/05 00:34:49;;;;;;;;;;;;;;;7.01;79.54;99541.97;7363819;19;19919;-65
2024/01/05 00:37:14;;;;;;;;;;;;;;;7.00;79.11;99537.69;7364316;19;19915;-65
2024/01/05 00:39:40;;;;;;;;;;;;;;;7.01;79.60;99533.34;7356914;19;20692;-65
2024/01/05 00:42:06;;;;;;;;;;;;;;;7.01;79.43;99535.94;7366997;19;19930;-65
2024/01/05 00:44:31;;;;;;;;;;;;;;;7.00;79.59;99539.44;7359556;19;19915;-65
2024/01/05 00:46:57;;;;;;;;;;;;;;;7.01;79.50;99544.56;7368693;19;19929;-64
2024/01/05 00:49:22;;;;;;;;;;;;;;;7.01;79.33;99543.72;7361610;19;19914;-65
2024/01/05 00:51:47;;;;;;;;;;;;;;;7.01;79.40;99541.97;7362630;19;20339;-65
2024/01/05 00:54:12;;;;;;;;;;;;;;;7.01;79.62;99544.56;7359756;19;20270;-66
2024/01/05 00:56:38;;;;;;;;;;;;;;;7.01;79.39;99547.16;7360380;19;19910;-65
2024/01/05 00:59:05;;;;;;;;;;;;;;;7.02;79.60;99546.25;7365455;19;19919;-64
2024/01/05 01:01:30;;;;;;;;;;;;;;;7.01;79.59;99544.56;7361828;19;19918;-65
2024/01/05 01:03:56;;;;;;;;;;;;;;;7.01;79.69;99539.38;7362680;19;19933;-64
2024/01/05 01:06:21;;;;;;;;;;;;;;;7.00;79.52;99550.66;7364510;19;19919;-65
2024/01/05 01:08:46;;;;;;;;;;;;;;;7.01;79.50;99554.09;7358635;19;19919;-65
2024/01/05 01:11:15;;;;;;;;;;;;;;;7.01;79.93;99567.06;7360257;19;19922;-65
2024/01/05 01:13:41;;;;;;;;;;;;;;;7.01;79.78;99557.53;7361774;19;19929;-65
2024/01/05 01:16:06;;;;;;;;;;;;;;;7.01;79.59;99554.09;7359661;19;19917;-65
2024/01/05 01:18:32;;;;;;;;;;;;;;;7.01;79.65;99549.75;7360582;19;19968;-65
2024/01/05 01:20:57;;;;;;;;;;;;;;;7.02;80.00;99561.84;7362142;19;21421;-65
2024/01/05 01:23:22;;;;;;;;;;;;;;;7.03;79.75;99573.06;7360868;19;19926;-65
2024/01/05 01:25:47;;;;;;;;;;;;;;;7.05;79.68;99562.66;7363157;19;20030;-65
2024/01/05 01:28:13;;;;;;;;;;;;;;;7.07;80.10;99563.47;7362567;19;19919;-65
2024/01/05 01:30:38;;;;;;;;;;;;;;;7.08;80.13;99565.16;7354152;19;20530;-65
2024/01/05 01:33:03;;;;;;;;;;;;;;;7.10;80.24;99558.19;7363202;19;19929;-65
2024/01/05 01:35:28;;;;;;;;;;;;;;;7.10;80.06;99560.81;7358900;19;20786;-65
2024/01/05 01:37:54;;;;;;;;;;;;;;;7.10;80.14;99569.44;7360959;19;19972;-65
2024/01/05 01:40:19;;;;;;;;;;;;;;;7.10;79.96;99558.19;7359312;19;19943;-65
2024/01/05 01:42:45;;;;;;;;;;;;;;;7.12;80.15;99561.59;7363286;19;19915;-65
2024/01/05 01:45:10;;;;;;;;;;;;;;;7.12;80.07;99561.59;7364083;19;19939;-65
2024/01/05 01:47:36;;;;;;;;;;;;;;;7.12;79.88;99559.00;7363288;19;20462;-65
2024/01/05 01:50:01;;;;;;;;;;;;;;;7.11;79.72;99565.09;7357503;19;20002;-65
2024/01/05 01:52:27;;;;;;;;;;;;;;;7.10;79.63;99561.66;7361498;19;19918;-65
2024/01/05 01:54:53;;;;;;;;;;;;;;;7.09;79.64;99559.91;7362770;19;19911;-64
2024/01/05 01:57:18;;;;;;;;;;;;;;;7.06;79.63;99564.38;7366955;19;19961;-65
2024/01/05 01:59:44;;;;;;;;;;;;;;;7.02;79.64;99564.44;7364902;19;19915;-65
2024/01/05 02:02:10;;;;;;;;;;;;;;;6.99;79.46;99569.72;7362383;19;19982;-65
2024/01/05 02:04:36;;;;;;;;;;;;;;;6.94;79.25;99563.78;7361514;19;20407;-65
2024/01/05 02:07:01;;;;;;;;;;;;;;;6.92;79.24;99573.34;7363523;19;19919;-64
2024/01/05 02:09:27;;;;;;;;;;;;;;;6.90;79.05;99574.31;7364784;19;20615;-65
2024/01/05 02:11:52;;;;;;;;;;;;;;;6.86;79.19;99565.72;7363098;19;20315;-65
2024/01/05 02:14:18;;;;;;;;;;;;;;;6.84;79.31;99575.28;7361052;19;19921;-65
2024/01/05 02:16:43;;;;;;;;;;;;;;;6.81;79.34;99572.78;7363626;19;20350;-65
2024/01/05 02:19:08;;;;;;;;;;;;;;;6.79;79.13;99574.53;7357400;19;19925;-65
2024/01/05 02:21:37;;;;;;;;;;;;;;;6.77;79.28;99576.34;7370240;19;20002;-65
2024/01/05 02:24:02;;;;;;;;;;;;;;;6.75;79.16;99580.72;7371004;19;19919;-65
2024/01/05 02:26:28;;;;;;;;;;;;;;;6.72;78.81;99583.38;7366801;19;19926;-65
2024/01/05 02:28:53;;;;;;;;;;;;;;;6.69;79.20;99591.22;7370949;19;19932;-65
2024/01/05 02:31:18;;;;;;;;;;;;;;;6.67;79.24;99595.63;7361663;19;20367;-65
2024/01/05 02:33:44;;;;;;;;;;;;;;;6.65;78.86;99592.22;7364661;19;19947;-66
2024/01/05 02:36:09;;;;;;;;;;;;;;;6.65;79.00;99592.22;7363786;19;20493;-65
2024/01/05 02:38:34;;;;;;;;;;;;;;;6.65;79.30;99594.81;7362259;19;19921;-65
2024/01/05 02:41:00;;;;;;;;;;;;;;;6.64;79.23;99593.97;7365665;19;20692;-65
2024/01/05 02:43:25;;;;;;;;;;;;;;;6.66;79.28;99593.91;7362463;19;20463;-65
2024/01/05 02:45:50;;;;;;;;;;;;;;;6.67;79.24;99598.22;7361294;19;19919;-65
2024/01/05 02:48:15;;;;;;;;;;;;;;;6.67;79.44;99593.88;7364804;19;19930;-66
2024/01/05 02:50:41;;;;;;;;;;;;;;;6.67;79.57;99596.47;7359699;19;20359;-65
2024/01/05 02:53:06;;;;;;;;;;;;;;;6.67;79.28;99598.22;7363548;19;19929;-65
2024/01/05 02:55:31;;;;;;;;;;;;;;;6.66;79.15;99594.78;7358397;19;19919;-64
2024/01/05 02:57:57;;;;;;;;;;;;;;;6.64;78.98;99600.88;7358962;19;20751;-65
2024/01/05 03:00:22;;;;;;;;;;;;;;;6.62;79.25;99597.47;7362596;19;19926;-66
2024/01/05 03:02:47;;;;;;;;;;;;;;;6.59;78.97;99605.31;7362257;19;19919;-65
2024/01/05 03:05:12;;;;;;;;;;;;;;;6.57;78.86;99594.13;7362353;19;19926;-65
2024/01/05 03:07:40;;;;;;;;;;;;;;;6.53;78.83;99600.28;7366152;19;19996;-65
2024/01/05 03:10:06;;;;;;;;;;;;;;;6.51;78.61;99602.91;7362771;19;19926;-65
2024/01/05 03:12:31;;;;;;;;;;;;;;;6.46;78.99;99610.81;7362380;19;20466;-65
2024/01/05 03:14:56;;;;;;;;;;;;;;;6.45;78.67;99613.44;7363922;19;20260;-65
2024/01/05 03:17:22;;;;;;;;;;;;;;;6.42;78.69;99606.56;7358086;19;19953;-65
2024/01/05 03:19:47;;;;;;;;;;;;;;;6.41;79.22;99610.06;7360616;19;19941;-65
2024/01/05 03:22:12;;;;;;;;;;;;;;;6.41;79.01;99604.88;7364886;19;19931;-65
2024/01/05 03:24:38;;;;;;;;;;;;;;;6.39;79.20;99611.84;7363313;19;19919;-65
2024/01/05 03:27:04;;;;;;;;;;;;;;;6.38;78.97;99610.13;7361399;19;19926;-65
2024/01/05 03:29:29;;;;;;;;;;;;;;;6.38;79.05;99609.28;7364049;19;19918;-66
2024/01/05 03:31:54;;;;;;;;;;;;;;;6.36;78.91;99613.66;7362410;19;20604;-64
2024/01/05 03:34:20;;;;;;;;;;;;;;;6.35;79.18;99619.72;7365616;19;19919;-65
2024/01/05 03:36:45;;;;;;;;;;;;;;;6.32;79.13;99615.44;7363143;19;19918;-64
2024/01/05 03:39:10;;;;;;;;;;;;;;;6.32;78.77;99619.78;7363256;19;20495;-65
2024/01/05 03:41:36;;;;;;;;;;;;;;;6.31;79.37;99629.31;7365094;19;19926;-65
2024/01/05 03:44:01;;;;;;;;;;;;;;;6.30;79.30;99635.38;7369877;19;19994;-65
2024/01/05 03:46:27;;;;;;;;;;;;;;;6.30;79.27;99627.59;7369777;19;19919;-65
2024/01/05 03:48:52;;;;;;;;;;;;;;;6.32;79.52;99628.41;7371351;19;19922;-66
2024/01/05 03:51:17;;;;;;;;;;;;;;;6.34;79.56;99637.03;7364933;19;19915;-67
2024/01/05 03:53:43;;;;;;;;;;;;;;;6.35;79.29;99638.72;7358978;19;20585;-65
2024/01/05 03:56:08;;;;;;;;;;;;;;;6.36;79.53;99632.66;7364665;19;19919;-65
2024/01/05 03:58:34;;;;;;;;;;;;;;;6.37;79.33;99634.34;7378381;19;19925;-65
2024/01/05 04:01:00;;;;;;;;;;;;;;;6.37;79.56;99628.31;7377166;19;19939;-65
2024/01/05 04:03:25;;;;;;;;;;;;;;;6.36;79.17;99627.47;7376949;19;19962;-65
2024/01/05 04:05:50;;;;;;;;;;;;;;;6.35;79.11;99633.53;7368770;19;20371;-66
2024/01/05 04:08:16;;;;;;;;;;;;;;;6.20;79.50;99616.59;7371437;19;19951;-65
2024/01/05 04:10:41;;;;;;;;;;;;;;;6.31;78.96;99634.50;7368320;19;19925;-65
2024/01/05 04:13:06;;;;;;;;;;;;;;;6.27;78.95;99632.84;7367773;19;19930;-66
2024/01/05 04:15:35;;;;;;;;;;;;;;;6.24;79.19;99640.72;7370689;19;20554;-65
2024/01/05 04:18:01;;;;;;;;;;;;;;;6.19;79.00;99646.00;7345639;19;19927;-65
2024/01/05 04:20:26;;;;;;;;;;;;;;;6.16;78.84;99638.28;7363171;19;19976;-65
2024/01/05 04:22:51;;;;;;;;;;;;;;;6.14;78.55;99647.00;7368116;19;19926;-66
2024/01/05 04:25:17;;;;;;;;;;;;;;;6.09;78.61;99647.09;7371505;19;19926;-66
2024/01/05 04:27:42;;;;;;;;;;;;;;;6.07;78.49;99655.75;7370764;19;19957;-65
2024/01/05 04:30:07;;;;;;;;;;;;;;;6.03;78.33;99654.13;7372893;19;20744;-65
2024/01/05 04:32:33;;;;;;;;;;;;;;;6.01;78.82;99650.72;7373367;19;19927;-65
2024/01/05 04:34:58;;;;;;;;;;;;;;;5.97;78.71;99650.75;7368540;19;19925;-65
2024/01/05 04:37:23;;;;;;;;;;;;;;;5.94;78.78;99645.66;7369862;19;19914;-65
2024/01/05 04:39:49;;;;;;;;;;;;;;;5.92;78.80;99650.00;7368633;19;20343;-65
2024/01/05 04:42:14;;;;;;;;;;;;;;;5.76;78.64;99624.41;7365195;19;19927;-65
2024/01/05 04:44:40;;;;;;;;;;;;;;;5.86;78.67;99652.69;7370227;19;19922;-65
2024/01/05 04:47:05;;;;;;;;;;;;;;;5.85;78.62;99647.56;7372353;19;19915;-65
2024/01/05 04:49:32;;;;;;;;;;;;;;;5.81;78.61;99654.53;7368409;19;19914;-65
2024/01/05 04:51:58;;;;;;;;;;;;;;;5.79;78.58;99658.91;7369957;19;20562;-65
2024/01/05 04:54:23;;;;;;;;;;;;;;;5.77;78.44;99663.22;7368214;19;19923;-65
2024/01/05 04:56:48;;;;;;;;;;;;;;;5.75;78.59;99659.84;7366489;19;19940;-64
2024/01/05 04:59:13;;;;;;;;;;;;;;;5.72;78.24;99670.25;7369049;19;19926;-65
2024/01/05 05:01:39;;;;;;;;;;;;;;;5.70;78.41;99666.84;7369758;19;19910;-65
2024/01/05 05:04:04;;;;;;;;;;;;;;;5.67;78.53;99666.88;7371093;19;20630;-65
2024/01/05 05:06:29;;;;;;;;;;;;;;;5.65;78.60;99668.66;7371352;19;19915;-65
2024/01/05 05:08:55;;;;;;;;;;;;;;;5.63;78.34;99678.22;7369048;19;19923;-65
2024/01/05 05:11:20;;;;;;;;;;;;;;;5.60;78.16;99676.53;7367437;19;19923;-65
2024/01/05 05:13:45;;;;;;;;;;;;;;;5.58;78.11;99687.81;7367615;19;19923;-65
2024/01/05 05:16:10;;;;;;;;;;;;;;;5.55;78.36;99685.25;7372635;19;19915;-65
2024/01/05 05:18:36;;;;;;;;;;;;;;;5.53;78.67;99693.06;7374069;19;20297;-65
2024/01/05 05:21:02;;;;;;;;;;;;;;;5.51;78.50;99691.38;7367939;19;19932;-65
2024/01/05 05:23:27;;;;;;;;;;;;;;;5.47;78.53;99696.63;7370340;19;19918;-66
2024/01/05 05:25:52;;;;;;;;;;;;;;;5.45;78.37;99698.38;7367508;19;19911;-65
2024/01/05 05:28:17;;;;;;;;;;;;;;;5.44;78.46;99704.44;7370298;19;19923;-65
2024/01/05 05:30:43;;;;;;;;;;;;;;;5.41;78.56;99701.88;7367577;19;19915;-65
2024/01/05 05:33:08;;;;;;;;;;;;;;;5.39;78.26;99698.50;7364555;19;19923;-64
2024/01/05 05:35:33;;;;;;;;;;;;;;;5.38;78.47;99701.13;7366681;19;19915;-65
2024/01/05 05:38:03;;;;;;;;;;;;;;;5.36;78.13;99708.88;7367664;19;19922;-65
2024/01/05 05:40:28;;;;;;;;;;;;;;;5.34;78.29;99705.47;7369531;19;19919;-65
2024/01/05 05:42:53;;;;;;;;;;;;;;;5.33;78.10;99713.28;7355296;19;20397;-65
2024/01/05 05:45:18;;;;;;;;;;;;;;;5.30;78.61;99714.16;7368755;19;19923;-65
2024/01/05 05:47:44;;;;;;;;;;;;;;;5.29;78.14;99715.06;7367787;19;19928;-65
2024/01/05 05:50:09;;;;;;;;;;;;;;;5.28;78.12;99720.28;7368556;19;20473;-65
2024/01/05 05:52:34;;;;;;;;;;;;;;;5.26;78.17;99720.28;7368089;19;19918;-65
2024/01/05 05:55:00;;;;;;;;;;;;;;;5.25;78.41;99715.97;7364916;19;19914;-64
2024/01/05 05:57:26;;;;;;;;;;;;;;;5.24;78.27;99718.59;7364127;19;19923;-64
2024/01/05 05:59:54;;;;;;;;;;;;;;;5.22;78.63;99726.41;7362740;19;19919;-65
2024/01/05 06:02:19;;;;;;;;;;;;;;;5.20;78.57;99725.56;7367499;19;19934;-65
2024/01/05 06:04:44;;;;;;;;;;;;;;;5.20;78.64;99729.00;7367318;19;19927;-65
2024/01/05 06:07:10;;;;;;;;;;;;;;;5.19;78.66;99736.78;7367396;19;19927;-65
2024/01/05 06:09:36;;;;;;;;;;;;;;;5.17;78.43;99742.00;7366035;19;19921;-65
2024/01/05 06:12:01;;;;;;;;;;;;;;;5.17;78.69;99743.72;7363769;19;20359;-65
2024/01/05 06:14:26;;;;;;;;;;;;;;;5.16;78.45;99744.59;7367788;19;19915;-65
2024/01/05 06:16:52;;;;;;;;;;;;;;;5.14;78.67;99748.97;7361483;19;20030;-65
2024/01/05 06:19:17;;;;;;;;;;;;;;;5.14;78.40;99751.53;7367755;19;19922;-65
2024/01/05 06:21:42;;;;;;;;;;;;;;;5.12;78.61;99758.47;7366191;19;21737;-65
2024/01/05 06:24:08;;;;;;;;;;;;;;;5.05;78.51;99746.50;7368605;19;19953;-65
2024/01/05 06:26:33;;;;;;;;;;;;;;;5.10;78.40;99760.22;7365095;19;19942;-65
2024/01/05 06:28:58;;;;;;;;;;;;;;;5.09;78.36;99761.97;7366990;19;19927;-65
2024/01/05 06:31:24;;;;;;;;;;;;;;;5.08;78.36;99759.41;7370508;19;20550;-65
2024/01/05 06:33:49;;;;;;;;;;;;;;;5.09;78.51;99761.13;7365924;19;19928;-66
2024/01/05 06:36:15;;;;;;;;;;;;;;;5.08;78.51;99770.63;7369393;19;19926;-65
2024/01/05 06:38:40;;;;;;;;;;;;;;;5.08;78.89;99769.75;7365121;19;19979;-65
2024/01/05 06:41:05;;;;;;;;;;;;;;;5.07;78.40;99773.19;7365138;19;19934;-65
2024/01/05 06:43:30;;;;;;;;;;;;;;;5.07;78.40;99780.97;7365960;19;19922;-65
2024/01/05 06:45:56;;;;;;;;;;;;;;;5.07;78.75;99783.56;7364494;19;19919;-65
2024/01/05 06:48:21;;;;;;;;;;;;;;;5.07;78.89;99788.72;7370324;19;19940;-65
2024/01/05 06:50:46;;;;;;;;;;;;;;;5.06;78.95;99799.97;7365418;19;19918;-66
2024/01/05 06:53:11;;;;;;;;;;;;;;;5.06;78.94;99797.38;7368786;19;19919;-65
2024/01/05 06:55:37;;;;;;;;;;;;;;;5.07;79.05;99799.06;7359733;19;19930;-65
2024/01/05 06:58:02;;;;;;;;;;;;;;;5.07;78.79;99806.84;7369227;19;20470;-64
2024/01/05 07:00:28;;;;;;;;;;;;;;;5.08;79.11;99811.16;7365241;19;20388;-65
2024/01/05 07:02:54;;;;;;;;;;;;;;;4.96;78.71;99788.88;7366876;19;19915;-65
2024/01/05 07:05:20;;;;;;;;;;;;;;;5.08;79.03;99817.19;7364317;19;19923;-65
2024/01/05 07:07:45;;;;;;;;;;;;;;;5.07;78.86;99814.59;7363965;19;20367;-65
2024/01/05 07:10:10;;;;;;;;;;;;;;;5.07;79.09;99817.19;7364853;19;19918;-66
2024/01/05 07:12:35;;;;;;;;;;;;;;;5.07;79.10;99814.59;7357096;19;20333;-65
2024/01/05 07:15:01;;;;;;;;;;;;;;;5.06;78.76;99818.94;7370012;19;20288;-65
2024/01/05 07:17:26;;;;;;;;;;;;;;;5.05;79.06;99826.72;7371450;19;19922;-65
2024/01/05 07:19:52;;;;;;;;;;;;;;;5.05;78.68;99830.16;7379607;19;19998;-65
2024/01/05 07:22:23;;;;;;;;;;;;;;;5.04;78.75;99830.19;7375534;19;19922;-65
2024/01/05 07:24:49;;;;;;;;;;;;;;;5.03;79.06;99834.50;7374894;19;19952;-65
2024/01/05 07:27:16;;;;;;;;;;;;;;;5.02;78.79;99831.94;7377494;19;20902;-65
2024/01/05 07:29:51;;;;;;;;;;;;;;;5.01;78.83;99835.41;7376498;19;19932;-65
2024/01/05 07:32:16;;;;;;;;;;;;;;;5.00;78.81;99844.03;7377513;19;19995;-65
2024/01/05 07:34:41;;;;;;;;;;;;;;;4.98;78.77;99850.97;7376928;19;19990;-65
2024/01/05 07:37:06;;;;;;;;;;;;;;;4.97;78.56;99851.84;7374997;19;19922;-65
2024/01/05 07:39:32;;;;;;;;;;;;;;;4.94;79.04;99856.19;7372127;19;19918;-65
2024/01/05 07:41:57;;;;;;;;;;;;;;;4.95;78.61;99867.38;7379618;19;19919;-66
2024/01/05 07:44:22;;;;;;;;;;;;;;;4.93;79.09;99864.81;7379166;19;20744;-65
2024/01/05 07:46:47;;;;;;;;;;;;;;;4.92;78.81;99873.47;7378480;19;20315;-65
2024/01/05 07:49:13;;;;;;;;;;;;;;;4.91;78.74;99870.88;7379723;19;19923;-65
2024/01/05 07:51:39;;;;;;;;;;;;;;;4.90;79.09;99875.19;7374418;19;19919;-64
2024/01/05 07:54:04;;;;;;;;;;;;;;;4.90;78.77;99885.56;7380843;19;19974;-65
2024/01/05 07:56:29;;;;;;;;;;;;;;;4.89;78.72;99888.16;7374634;19;19949;-65
2024/01/05 07:58:55;;;;;;;;;;;;;;;4.88;78.68;99884.72;7378277;19;19926;-65
2024/01/05 08:01:20;;;;;;;;;;;;;;;4.86;78.73;99889.03;7366965;19;19914;-65
2024/01/05 08:03:46;;;;;;;;;;;;;;;4.85;78.75;99902.84;7374312;19;20375;-65
2024/01/05 08:06:16;;;;;;;;;;;;;;;4.84;78.97;99901.16;7379974;19;19923;-65
2024/01/05 08:08:45;;;;;;;;;;;;;;;4.85;78.86;99904.59;7384731;19;20276;-65
2024/01/05 08:11:10;;;;;;;;;;;;;;;4.84;78.79;99905.47;7375266;19;20359;-65
2024/01/05 08:13:36;;;;;;;;;;;;;;;4.82;78.77;99918.44;7377995;19;19919;-65
2024/01/05 08:16:01;;;;;;;;;;;;;;;4.81;78.66;99921.88;7365646;19;19934;-65
2024/01/05 08:18:26;;;;;;;;;;;;;;;4.81;78.71;99921.88;7377220;19;19939;-65
2024/01/05 08:20:51;;;;;;;;;;;;;;;4.79;78.87;99923.63;7367458;19;19917;-65
2024/01/05 08:23:18;;;;;;;;;;;;;;;4.79;79.18;99917.59;7380959;19;20248;-65
2024/01/05 08:25:43;;;;;;;;;;;;;;;4.77;78.72;99920.22;7374615;19;19923;-65
2024/01/05 08:28:08;;;;;;;;;;;;;;;4.77;79.15;99930.56;7375243;19;20279;-66
2024/01/05 08:30:34;;;;;;;;;;;;;;;4.77;78.76;99927.97;7366426;19;19922;-65
2024/01/05 08:32:59;;;;;;;;;;;;;;;4.76;78.63;99927.97;7370338;19;19922;-65
2024/01/05 08:35:24;;;;;;;;;;;;;;;4.75;79.20;99937.47;7368672;19;19919;-65
2024/01/05 08:37:49;;;;;;;;;;;;;;;4.75;79.09;99944.38;7369507;19;19929;-65
2024/01/05 08:40:15;;;;;;;;;;;;;;;4.73;78.89;99944.41;7366917;19;19959;-64
2024/01/05 08:42:41;;;;;;;;;;;;;;;4.74;78.86;99951.28;7339661;19;20264;-65
2024/01/05 08:45:06;;;;;;;;;;;;;;;4.73;79.11;99954.75;7370329;19;19918;-65
2024/01/05 08:47:31;;;;;;;;;;;;;;;4.73;78.95;99953.88;7364763;19;20016;-65
2024/01/05 08:49:56;;;;;;;;;;;;;;;4.72;79.12;99947.88;7366784;19;19923;-65
2024/01/05 08:52:22;;;;;;;;;;;;;;;4.73;78.90;99954.75;7366908;19;19939;-65
2024/01/05 08:54:47;;;;;;;;;;;;;;;4.72;78.97;99957.34;7358836;19;20027;-65
2024/01/05 08:57:12;;;;;;;;;;;;;;;4.71;78.99;99966.81;7364222;19;19933;-65
2024/01/05 08:59:39;;;;;;;;;;;;;;;4.72;78.86;99968.56;7368724;19;19918;-65
2024/01/05 09:02:05;;;;;;;;;;;;;;;4.72;79.22;99978.03;7368920;19;20409;-65
2024/01/05 09:04:31;;;;;;;;;;;;;;;4.72;78.98;99978.91;7368685;19;19938;-65
2024/01/05 09:06:56;;;;;;;;;;;;;;;4.74;79.21;99971.13;7366064;19;20405;-65
2024/01/05 09:09:22;;;;;;;;;;;;;;;4.73;79.37;99980.59;7371801;19;19918;-66
2024/01/05 09:11:47;;;;;;;;;;;;;;;4.73;79.43;99988.38;7366488;19;19981;-65
2024/01/05 09:14:12;;;;;;;;;;;;;;;4.75;79.34;99994.38;7367627;19;19936;-65
2024/01/05 09:16:37;;;;;;;;;;;;;;;4.75;79.42;100004.72;7364405;19;19914;-65
2024/01/05 09:19:03;;;;;;;;;;;;;;;4.75;79.30;99999.53;7367045;19;19930;-65
2024/01/05 09:21:28;;;;;;;;;;;;;;;4.77;79.26;100002.13;7372029;19;20634;-65
2024/01/05 09:23:53;;;;;;;;;;;;;;;4.77;79.07;100005.56;7366284;19;19961;-65
2024/01/05 09:26:19;;;;;;;;;;;;;;;4.79;79.52;100008.13;7361959;19;20464;-65
2024/01/05 09:28:44;;;;;;;;;;;;;;;4.80;79.34;100007.25;7370880;19;20590;-65
2024/01/05 09:31:12;;;;;;;;;;;;;;;4.82;79.43;100013.28;7360778;19;19918;-65
2024/01/05 09:33:37;;;;;;;;;;;;;;;4.84;79.62;100014.97;7367004;19;20351;-65
2024/01/05 09:36:03;;;;;;;;;;;;;;;4.85;79.40;100016.69;7348501;19;19918;-65
2024/01/05 09:38:28;;;;;;;;;;;;;;;4.88;79.56;100020.97;7363381;19;19915;-65
2024/01/05 09:40:54;;;;;;;;;;;;;;;4.90;79.72;100030.41;7372905;19;19948;-66
2024/01/05 09:43:24;;;;;;;;;;;;;;;4.91;79.92;100029.53;7366915;19;19922;-66
2024/01/05 09:45:50;;;;;;;;;;;;;;;4.95;79.88;100038.13;7363533;19;20327;-65
2024/01/05 09:48:18;;;;;;;;;;;;;;;4.97;79.81;100039.00;7366949;19;19922;-66
2024/01/05 09:50:48;;;;;;;;;;;;;;;4.99;79.87;100045.00;7364119;19;19925;-65
2024/01/05 09:53:13;;;;;;;;;;;;;;;5.01;79.77;100052.75;7366502;19;19955;-65
2024/01/05 09:55:39;;;;;;;;;;;;;;;5.04;79.55;100047.53;7368053;19;20409;-65
2024/01/05 09:58:05;;;;;;;;;;;;;;;5.08;80.05;100059.59;7367858;19;19934;-66
2024/01/05 10:00:31;;;;;;;;;;;;;;;5.11;79.97;100050.03;7341877;19;19922;-65
2024/01/05 10:02:59;;;;;;;;;;;;;;;5.16;80.09;100062.94;7356341;19;20316;-65
2024/01/05 10:05:25;;;;;;;;;;;;;;;5.22;80.43;100062.88;7363342;19;20023;-65
2024/01/05 10:07:50;;;;;;;;;;;;;;;5.30;80.25;100071.41;7358844;19;19942;-66
2024/01/05 10:10:15;;;;;;;;;;;;;;;5.38;80.35;100069.59;7369447;19;19930;-66
2024/01/05 10:12:43;;;;;;;;;;;;;;;5.51;80.41;100069.44;7363183;19;20710;-66
2024/01/05 10:15:11;;;;;;;;;;;;;;;5.64;81.02;100082.22;7369115;19;19922;-65
2024/01/05 10:17:36;;;;;;;;;;;;;;;5.80;81.11;100090.66;7354935;19;19922;-65
2024/01/05 10:20:12;;;;;;;;;;;;;;;5.94;80.55;100083.59;7367627;19;19941;-66
2024/01/05 10:22:37;;;;;;;;;;;;;;;6.09;80.66;100092.88;7367284;19;19956;-65
2024/01/05 10:25:21;;;;;;;;;;;;;;;6.29;81.25;100091.75;7363530;19;20459;-65
2024/01/05 10:27:47;;;;;;;;;;;;;;;6.49;80.92;100090.56;7363394;19;19932;-65
2024/01/05 10:43:06;;;;;;;;;;;;;;;7.69;80.66;100104.81;7396866;19;19918;-65
2024/01/05 10:45:32;;;;;;;;;;;;;;;7.94;80.65;100114.69;7365727;19;19947;-65
2024/01/05 10:47:57;;;;;;;;;;;;;;;8.13;79.97;100118.63;7367405;19;19919;-66
2024/01/05 10:50:24;;;;;;;;;;;;;;;8.36;80.00;100119.84;7368358;19;19915;-65
2024/01/05 10:52:49;;;;;;;;;;;;;;;8.58;79.38;100124.53;7366110;19;19927;-66
2024/01/05 10:55:17;;;;;;;;;;;;;;;8.81;79.65;100131.78;7363236;19;20251;-66
2024/01/05 10:57:42;;;;;;;;;;;;;;;9.05;79.36;100126.88;7345528;19;19926;-66
2024/01/05 11:00:09;;;;;;;;;;;;;;;9.26;79.09;100128.06;7369302;19;20412;-66
2024/01/05 11:02:40;;;;;;;;;;;;;;;9.47;78.99;100127.47;7369368;19;19919;-67
2024/01/05 11:05:05;;;;;;;;;;;;;;;9.70;78.90;100126.84;7369500;19;19986;-66
2024/01/05 11:07:31;;;;;;;;;;;;;;;9.91;78.23;100130.59;7366380;19;20013;-66
2024/01/05 11:10:02;;;;;;;;;;;;;;;10.09;77.89;100132.66;7365266;19;19918;-66
2024/01/05 11:12:48;;;;;;;;;;;;;;;10.32;77.66;100128.53;7371526;19;19918;-66
2024/01/05 11:15:36;;;;;;;;;;;;;;;10.57;77.66;100129.47;7366655;19;19927;-66
2024/01/05 11:18:13;;;;;;;;;;;;;;;10.84;77.40;100132.94;7358001;19;20358;-66
2024/01/05 11:20:54;;;;;;;;;;;;;;;11.06;76.94;100120.03;7363523;19;19922;-66
2024/01/05 11:23:20;;;;;;;;;;;;;;;11.32;77.33;100128.72;7364965;19;19961;-66
2024/01/05 11:25:45;;;;;;;;;;;;;;;11.51;77.01;100124.56;7364786;19;19930;-67
2024/01/05 11:28:29;;;;;;;;;;;;;;;11.70;76.36;100120.34;7360382;19;20268;-66
2024/01/05 11:30:54;;;;;;;;;;;;;;;11.89;76.29;100124.94;7363640;19;19968;-66
2024/01/05 11:33:38;;;;;;;;;;;;;;;12.06;76.06;100121.69;7366881;19;19919;-66
2024/01/05 11:36:04;;;;;;;;;;;;;;;12.23;76.10;100129.75;7357224;19;19926;-66
2024/01/05 11:38:29;;;;;;;;;;;;;;;12.39;75.62;100125.63;7366168;19;19918;-66
2024/01/05 11:40:55;;;;;;;;;;;;;;;12.56;75.53;100126.72;7361670;19;19922;-66
2024/01/05 11:43:30;;;;;;;;;;;;;;;12.73;75.47;100135.63;7369660;19;20443;-66
2024/01/05 11:45:55;;;;;;;;;;;;;;;12.94;75.79;100127.78;7364661;19;20669;-66
2024/01/05 11:48:35;;;;;;;;;;;;;;;13.11;75.00;100133.16;7365931;19;20017;-66
2024/01/05 11:51:03;;;;;;;;;;;;;;;13.30;75.05;100140.31;7362136;19;19923;-68
2024/01/05 11:53:29;;;;;;;;;;;;;;;13.46;75.00;100141.34;7364852;19;19937;-66
2024/01/05 11:55:56;;;;;;;;;;;;;;;13.62;75.07;100139.75;7366708;19;19911;-66
2024/01/05 11:58:22;;;;;;;;;;;;;;;13.77;74.84;100135.59;7364717;19;19960;-66
2024/01/05 12:00:49;;;;;;;;;;;;;;;13.90;74.51;100136.75;7363545;19;20828;-66
2024/01/05 12:03:15;;;;;;;;;;;;;;;14.05;74.98;100140.44;7365524;19;19923;-66
2024/01/05 12:05:41;;;;;;;;;;;;;;;14.15;74.33;100144.34;7369899;19;19931;-66
2024/01/05 12:08:11;;;;;;;;;;;;;;;13.95;73.95;100098.00;7367064;19;20333;-66
2024/01/05 12:10:37;;;;;;;;;;;;;;;14.36;73.62;100144.28;7369796;19;19922;-66
2024/01/05 12:13:03;;;;;;;;;;;;;;;14.49;73.91;100145.41;7369814;19;19933;-66
2024/01/05 12:15:28;;;;;;;;;;;;;;;14.61;73.74;100147.47;7372224;19;19919;-66
2024/01/05 12:18:03;;;;;;;;;;;;;;;14.73;73.74;100144.22;7367642;19;20419;-67
2024/01/05 12:20:29;;;;;;;;;;;;;;;14.87;74.09;100142.72;7370161;19;21830;-66
2024/01/05 12:22:54;;;;;;;;;;;;;;;14.96;73.34;100144.91;7369591;19;19992;-66
2024/01/05 12:25:19;;;;;;;;;;;;;;;15.07;73.71;100153.09;7369307;19;20374;-66
2024/01/05 12:27:44;;;;;;;;;;;;;;;15.17;73.57;100151.69;7365227;19;20212;-66
2024/01/05 12:30:10;;;;;;;;;;;;;;;15.29;73.28;100153.69;7366836;19;19982;-66
2024/01/05 12:32:36;;;;;;;;;;;;;;;15.40;73.16;100149.66;7370300;19;19915;-66
2024/01/05 12:35:02;;;;;;;;;;;;;;;15.51;72.94;100152.59;7368845;19;20259;-66
2024/01/05 12:37:28;;;;;;;;;;;;;;;15.63;73.35;100152.00;7378156;19;19930;-66
2024/01/05 12:39:53;;;;;;;;;;;;;;;15.73;73.03;100158.47;7372282;19;19922;-66
2024/01/05 12:42:18;;;;;;;;;;;;;;;15.83;72.95;100143.91;7372144;19;19930;-66
2024/01/05 12:44:44;;;;;;;;;;;;;;;15.93;72.80;100148.69;7366405;19;20344;-66
2024/01/05 12:47:10;;;;;;;;;;;;;;;16.00;72.44;100150.88;7371044;19;19915;-66
2024/01/05 12:49:35;;;;;;;;;;;;;;;16.09;72.49;100152.19;7367308;19;21847;-66
2024/01/05 12:52:01;;;;;;;;;;;;;;;16.15;71.77;100159.75;7368034;19;20002;-66
2024/01/05 12:54:26;;;;;;;;;;;;;;;16.21;72.11;100159.41;7370505;19;20466;-66
2024/01/05 12:56:53;;;;;;;;;;;;;;;16.31;72.06;100168.50;7366522;19;19966;-66
2024/01/05 12:59:22;;;;;;;;;;;;;;;16.44;72.87;100160.78;7368502;19;19955;-66